createdAt,value
2023-03-06T00:00:44.455Z,2.03
2023-03-06T00:05:47.612Z,2.07
2023-03-06T00:10:50.146Z,2.08
2023-03-06T00:15:53.046Z,2.25
2023-03-06T00:20:55.632Z,2.31
2023-03-06T00:25:58.176Z,2.43
2023-03-06T00:31:01.324Z,2.45
2023-03-06T00:36:06.075Z,2.52
2023-03-06T00:41:13.134Z,2.64
2023-03-06T00:46:15.575Z,2.74
2023-03-06T00:51:19.942Z,2.73
2023-03-06T00:56:22.539Z,2.66
2023-03-06T01:01:25.053Z,2.61
2023-03-06T01:06:28.562Z,2.47
2023-03-06T01:11:31.433Z,2.52
2023-03-06T01:16:34.122Z,2.61
2023-03-06T01:21:36.619Z,2.65
2023-03-06T01:26:39.176Z,2.61
2023-03-06T01:31:41.739Z,2.61
2023-03-06T01:36:44.396Z,2.63
2023-03-06T01:41:46.925Z,2.76
2023-03-06T01:46:49.464Z,2.78
2023-03-06T01:51:54.773Z,2.67
2023-03-06T01:57:25.533Z,2.56
2023-03-06T02:02:28.261Z,2.49
2023-03-06T02:07:31.707Z,2.43
2023-03-06T02:12:34.291Z,2.40
2023-03-06T02:17:37.425Z,2.45
2023-03-06T02:22:49.169Z,2.52
2023-03-06T02:27:52.715Z,2.59
2023-03-06T02:32:55.979Z,2.75
2023-03-06T02:38:03.158Z,2.88
2023-03-06T02:43:05.965Z,2.78
2023-03-06T02:48:09.672Z,2.64
2023-03-06T02:53:14.142Z,2.32
2023-03-06T02:58:19.900Z,2.05
2023-03-06T03:03:23.389Z,1.96
2023-03-06T03:08:28.552Z,2.10
2023-03-06T03:13:35.681Z,2.05
2023-03-06T03:18:38.641Z,2.18
2023-03-06T03:23:41.836Z,2.15
2023-03-06T05:16:17.422Z,2.65
2023-03-06T05:21:20.416Z,2.88
2023-03-06T05:26:22.975Z,2.92
2023-03-06T05:31:25.479Z,3.37
2023-03-06T05:36:28.104Z,3.78
2023-03-06T05:41:30.967Z,3.98
2023-03-06T05:46:33.427Z,4.20
2023-03-06T05:51:36.581Z,4.33
2023-03-06T05:56:40.269Z,4.39
2023-03-06T06:01:46.490Z,4.43
2023-03-06T06:06:56.283Z,4.52
2023-03-06T06:12:01.914Z,4.51
2023-03-06T06:17:04.863Z,4.45
2023-03-06T06:22:07.290Z,4.71
2023-03-06T06:27:09.745Z,4.96
2023-03-06T06:32:12.248Z,5.27
2023-03-06T06:37:14.738Z,5.48
2023-03-06T06:42:38.894Z,5.56
2023-03-06T06:47:43.703Z,5.50
2023-03-06T06:52:46.544Z,5.39
2023-03-06T06:57:48.921Z,5.94
2023-03-06T07:02:51.556Z,6.20
2023-03-06T07:07:54.040Z,6.53
2023-03-06T07:12:56.873Z,6.86
2023-03-06T07:18:01.004Z,6.93
2023-03-06T07:23:03.519Z,7.01
2023-03-06T07:28:06.281Z,7.38
2023-03-06T07:33:09.337Z,7.53
2023-03-06T07:38:12.178Z,7.81
2023-03-06T07:43:19.496Z,8.04
2023-03-06T07:48:29.609Z,7.89
2023-03-06T07:53:32.900Z,7.90
2023-03-06T07:58:41.342Z,7.89
2023-03-06T08:03:44.272Z,8.06
2023-03-06T08:08:48.408Z,7.97
2023-03-06T08:13:53.070Z,7.87
2023-03-06T08:18:56.449Z,7.89
2023-03-06T08:23:59.462Z,7.86
2023-03-06T08:29:02.791Z,7.91
2023-03-06T08:34:12.966Z,8.12
2023-03-06T08:39:15.505Z,8.30
2023-03-06T08:44:18.076Z,8.63
2023-03-06T08:49:20.733Z,8.37
2023-03-06T08:54:23.223Z,8.24
2023-03-06T08:59:25.757Z,8.32
2023-03-06T09:04:31.354Z,8.43
2023-03-06T09:09:33.872Z,8.12
2023-03-06T09:14:36.284Z,8.36
2023-03-06T09:19:38.855Z,8.35
2023-03-06T09:24:41.387Z,8.48
2023-03-06T09:29:43.882Z,8.31
2023-03-06T09:34:46.336Z,8.04
2023-03-06T09:39:50.321Z,7.92
2023-03-06T09:45:04.279Z,8.92
2023-03-06T09:50:25.354Z,9.21
2023-03-06T09:55:33.000Z,8.97
2023-03-06T10:00:58.390Z,8.75
2023-03-06T10:06:30.469Z,8.93
2023-03-06T10:11:43.832Z,8.82
2023-03-06T10:16:46.547Z,8.85
2023-03-06T10:22:04.316Z,9.03
2023-03-06T10:27:17.073Z,8.69
2023-03-06T10:32:46.097Z,7.99
2023-03-06T10:37:50.424Z,7.95
2023-03-06T10:43:09.390Z,7.99
2023-03-06T10:48:20.343Z,8.32
2023-03-06T10:53:29.442Z,8.49
2023-03-06T10:58:33.576Z,8.59
2023-03-06T11:03:37.181Z,8.41
2023-03-06T11:08:41.149Z,8.53
2023-03-06T11:13:44.751Z,8.31
2023-03-06T11:19:18.028Z,8.21
2023-03-06T11:24:22.797Z,8.18
2023-03-06T11:29:43.613Z,8.16
2023-03-06T11:35:14.140Z,8.16
2023-03-06T11:41:00.140Z,7.83
2023-03-06T11:46:37.199Z,7.95
2023-03-06T11:51:48.442Z,7.83
2023-03-06T11:57:12.990Z,7.61
2023-03-06T12:02:37.950Z,7.42
2023-03-06T12:07:48.799Z,7.19
2023-03-06T12:13:00.568Z,7.22
2023-03-06T12:18:12.253Z,6.87
2023-03-06T12:23:23.654Z,6.64
2023-03-06T12:28:47.338Z,6.51
2023-03-06T12:33:55.712Z,6.30
2023-03-06T12:39:12.966Z,6.47
2023-03-06T12:44:24.173Z,6.61
2023-03-06T12:49:32.980Z,6.47
2023-03-06T12:54:42.022Z,6.44
2023-03-06T12:59:48.876Z,6.44
2023-03-06T13:05:13.053Z,6.37
2023-03-06T13:10:34.888Z,6.40
2023-03-06T13:15:42.852Z,6.29
2023-03-06T13:20:46.370Z,6.20
2023-03-06T13:25:50.540Z,5.99
2023-03-06T13:30:53.450Z,5.94
2023-03-06T13:35:56.964Z,5.90
2023-03-06T13:41:21.147Z,5.83
2023-03-06T13:46:35.657Z,5.78
2023-03-06T13:51:41.176Z,5.77
2023-03-06T13:57:04.322Z,5.69
2023-03-06T14:02:28.592Z,5.58
2023-03-06T14:07:40.377Z,5.45
2023-03-06T14:13:13.341Z,5.32
2023-03-06T14:18:42.700Z,5.09
2023-03-06T14:23:47.451Z,4.91
2023-03-06T14:28:53.034Z,4.91
2023-03-06T14:34:01.286Z,4.76
2023-03-06T14:39:14.123Z,4.63
2023-03-06T14:44:18.368Z,4.48
2023-03-06T14:49:22.590Z,4.37
2023-03-06T14:54:29.772Z,4.23
2023-03-06T14:59:56.614Z,4.16
2023-03-06T15:05:05.732Z,4.09
2023-03-06T15:10:21.666Z,4.03
2023-03-06T15:15:30.750Z,4.00
2023-03-06T15:20:54.076Z,3.90
2023-03-06T15:26:02.361Z,3.82
2023-03-06T15:31:11.049Z,3.65
2023-03-06T15:36:27.947Z,3.42
2023-03-06T15:41:39.025Z,3.25
2023-03-06T15:46:42.354Z,3.07
2023-03-06T15:51:45.028Z,2.89
2023-03-06T15:56:49.943Z,2.76
2023-03-06T16:01:53.366Z,2.66
2023-03-06T16:06:55.982Z,2.60
2023-03-06T16:11:59.710Z,2.58
2023-03-06T16:17:02.321Z,2.56
2023-03-06T16:22:04.799Z,2.51
2023-03-06T16:27:07.385Z,2.37
2023-03-06T16:32:11.882Z,2.32
2023-03-06T16:37:14.521Z,2.26
2023-03-06T16:42:17.898Z,2.19
2023-03-06T16:47:20.390Z,2.22
2023-03-06T16:52:22.950Z,2.13
2023-03-06T16:57:25.624Z,2.18
2023-03-06T17:02:28.108Z,2.17
2023-03-06T17:07:33.325Z,2.16
2023-03-06T17:12:36.250Z,2.07
2023-03-06T17:17:39.100Z,2.03
2023-03-06T17:22:46.487Z,1.93
2023-03-06T17:27:49.148Z,1.88
2023-03-06T17:32:51.661Z,1.85
2023-03-06T17:37:59.013Z,1.75
2023-03-06T17:43:01.637Z,1.67
2023-03-06T17:48:04.345Z,1.60
2023-03-06T17:53:06.938Z,1.63
2023-03-06T17:58:12.091Z,1.59
2023-03-06T18:03:15.031Z,1.54
2023-03-06T18:08:17.489Z,1.44
2023-03-06T18:13:20.354Z,1.45
2023-03-06T18:18:23.655Z,1.35
2023-03-06T18:23:27.032Z,1.28
2023-03-06T18:28:31.020Z,1.24
2023-03-06T18:33:33.617Z,1.20
2023-03-06T18:38:36.146Z,1.19
2023-03-06T18:43:39.319Z,1.15
2023-03-06T18:48:41.841Z,1.10
2023-03-06T18:53:44.591Z,1.10
2023-03-06T18:58:48.520Z,1.07
2023-03-06T19:03:51.065Z,1.02
2023-03-06T19:08:58.931Z,1.01
2023-03-06T19:14:01.934Z,0.93
2023-03-06T19:19:04.485Z,0.94
2023-03-06T19:24:13.406Z,0.88
2023-03-06T19:29:15.924Z,0.84
2023-03-06T19:34:19.060Z,0.83
2023-03-06T19:39:21.604Z,0.76
2023-03-06T19:44:27.201Z,0.73
2023-03-06T19:49:30.432Z,0.69
2023-03-06T19:54:33.264Z,0.67
2023-03-06T19:59:36.007Z,0.60
2023-03-06T20:04:38.827Z,0.51
2023-03-06T20:09:41.409Z,0.49
2023-03-06T20:14:46.296Z,0.50
2023-03-06T20:19:48.783Z,0.43
2023-03-06T20:24:51.369Z,0.55
2023-03-06T20:29:53.968Z,0.56
2023-03-06T20:34:56.448Z,0.56
2023-03-06T20:39:59.082Z,0.47
2023-03-06T20:45:01.599Z,0.34
2023-03-06T20:50:06.433Z,0.35
2023-03-06T20:55:09.467Z,0.25
2023-03-06T21:00:12.424Z,0.26
2023-03-06T21:05:15.034Z,0.19
2023-03-06T21:10:17.703Z,0.18
2023-03-06T21:15:22.783Z,0.02
2023-03-06T21:20:25.220Z,0.03
2023-03-06T21:25:29.136Z,-0.06
2023-03-06T21:30:32.890Z,-0.04
2023-03-06T21:35:40.916Z,0.09
2023-03-06T21:40:44.916Z,0.12
2023-03-06T21:45:49.344Z,0.17
2023-03-06T21:50:51.991Z,0.15
2023-03-06T22:01:27.186Z,0.18
2023-03-06T22:06:32.036Z,0.12
2023-03-06T22:11:37.519Z,0.11
2023-03-06T22:16:40.129Z,0.06
2023-03-06T22:21:42.957Z,0.06
2023-03-06T22:26:45.469Z,0.10
2023-03-06T22:31:47.958Z,0.03
2023-03-06T22:36:50.748Z,-0.06
2023-03-06T22:41:56.256Z,-0.10
2023-03-06T22:46:58.690Z,-0.17
2023-03-06T22:52:01.179Z,-0.15
2023-03-06T22:57:04.602Z,-0.23
2023-03-06T23:02:08.347Z,-0.25
2023-03-06T23:07:10.957Z,-0.23
2023-03-06T23:12:13.444Z,-0.26
2023-03-06T23:17:35.036Z,-0.33
2023-03-06T23:22:55.893Z,-0.29
2023-03-06T23:28:16.763Z,-0.31
2023-03-06T23:33:19.528Z,-0.30
2023-03-06T23:38:21.913Z,-0.23
2023-03-06T23:43:24.445Z,-0.29
2023-03-06T23:48:29.797Z,-0.18
2023-03-06T23:53:32.259Z,-0.18
2023-03-06T23:58:35.566Z,-0.06
